Newark, Maryland
Current Conditions -  °F | °C
As of 6:53 AM on Saturday 25 Oct 2014 (Local Time) from KOXB Reporting Station
Clear Clear  
Wind Chill: 44°   Ceiling: Unl
Heat Index: 47°   Visibility: 10mi
Dew Point: 40°   Wind: 6mph
Humidity: 77%   Direction: 320°NW
Pressure: 29.93"   Gusts: NA
Location:  38.24°N, 75.28°W
Report Text: KOXB 251053Z AUTO 32005KT 10SM CLR 08/04 A2993 RMK AO2 SLP136 T00830044 TSNO
Loading
Personal Weather Stations






























Interactive Weather Map
Tropical Storm Tracking
New forecast layout! Learn more

10-Day Weather Forecast

Advertisements
Track Severe Weather on mobile